<?xml version="1.0" encoding="UTF-8" standalone="no" ?>
<gpx xmlns="http://www.topografix.com/GPX/1/1" xmlns:xsi="http://www.w3.org/2001/XMLSchema-instance" xsi:schemaLocation="http://www.topografix.com/GPX/1/1 http://www.topografix.com/GPX/1/1/gpx.xsd" version="1.1" creator="VisuGPX - https://www.visugpx.com">
  <metadata>
    <name>Course à pied le midi</name>
  </metadata>
  <trk>
    <name><![CDATA[Course à pied le midi_1]]></name>
    <trkseg>
      <trkpt lat="48.71138" lon="7.16279">
        <ele>316.7</ele>
        <time>2023-10-05T09:42:44Z</time>
      </trkpt>
      <trkpt lat="48.71123" lon="7.16264">
        <ele>317.1</ele>
        <time>2023-10-05T09:42:50Z</time>
      </trkpt>
      <trkpt lat="48.71107" lon="7.16246">
        <ele>317.3</ele>
        <time>2023-10-05T09:42:57Z</time>
      </trkpt>
      <trkpt lat="48.71092" lon="7.16228">
        <ele>317.5</ele>
        <time>2023-10-05T09:43:03Z</time>
      </trkpt>
      <trkpt lat="48.71077" lon="7.1621">
        <ele>317.8</ele>
        <time>2023-10-05T09:43:09Z</time>
      </trkpt>
      <trkpt lat="48.71061" lon="7.16196">
        <ele>318</ele>
        <time>2023-10-05T09:43:17Z</time>
      </trkpt>
      <trkpt lat="48.71043" lon="7.16184">
        <ele>318.1</ele>
        <time>2023-10-05T09:43:23Z</time>
      </trkpt>
      <trkpt lat="48.71024" lon="7.16169">
        <ele>318.2</ele>
        <time>2023-10-05T09:43:30Z</time>
      </trkpt>
      <trkpt lat="48.71006" lon="7.16168">
        <ele>318.5</ele>
        <time>2023-10-05T09:43:37Z</time>
      </trkpt>
      <trkpt lat="48.70985" lon="7.16167">
        <ele>318.8</ele>
        <time>2023-10-05T09:43:44Z</time>
      </trkpt>
      <trkpt lat="48.70964" lon="7.16169">
        <ele>319.4</ele>
        <time>2023-10-05T09:43:52Z</time>
      </trkpt>
      <trkpt lat="48.70945" lon="7.16167">
        <ele>320</ele>
        <time>2023-10-05T09:43:58Z</time>
      </trkpt>
      <trkpt lat="48.70926" lon="7.16163">
        <ele>320.7</ele>
        <time>2023-10-05T09:44:04Z</time>
      </trkpt>
      <trkpt lat="48.70909" lon="7.16154">
        <ele>321.4</ele>
        <time>2023-10-05T09:44:09Z</time>
      </trkpt>
      <trkpt lat="48.7089" lon="7.16147">
        <ele>322.1</ele>
        <time>2023-10-05T09:44:16Z</time>
      </trkpt>
      <trkpt lat="48.7087" lon="7.16155">
        <ele>322.9</ele>
        <time>2023-10-05T09:44:24Z</time>
      </trkpt>
      <trkpt lat="48.7085" lon="7.1615">
        <ele>323.7</ele>
        <time>2023-10-05T09:44:31Z</time>
      </trkpt>
      <trkpt lat="48.70834" lon="7.16134">
        <ele>324.5</ele>
        <time>2023-10-05T09:44:35Z</time>
      </trkpt>
      <trkpt lat="48.70827" lon="7.16134">
        <ele>325.3</ele>
        <time>2023-10-05T09:44:38Z</time>
      </trkpt>
      <trkpt lat="48.70813" lon="7.16157">
        <ele>327</ele>
        <time>2023-10-05T09:44:45Z</time>
      </trkpt>
      <trkpt lat="48.70797" lon="7.16175">
        <ele>328.6</ele>
        <time>2023-10-05T09:44:51Z</time>
      </trkpt>
      <trkpt lat="48.70784" lon="7.16196">
        <ele>330.2</ele>
        <time>2023-10-05T09:44:58Z</time>
      </trkpt>
      <trkpt lat="48.70774" lon="7.1622">
        <ele>331.9</ele>
        <time>2023-10-05T09:45:06Z</time>
      </trkpt>
      <trkpt lat="48.70761" lon="7.16242">
        <ele>333.7</ele>
        <time>2023-10-05T09:45:14Z</time>
      </trkpt>
      <trkpt lat="48.7075" lon="7.16265">
        <ele>335.6</ele>
        <time>2023-10-05T09:45:23Z</time>
      </trkpt>
      <trkpt lat="48.70738" lon="7.16285">
        <ele>337.4</ele>
        <time>2023-10-05T09:45:31Z</time>
      </trkpt>
      <trkpt lat="48.70728" lon="7.16308">
        <ele>339</ele>
        <time>2023-10-05T09:45:38Z</time>
      </trkpt>
      <trkpt lat="48.70714" lon="7.16332">
        <ele>340.9</ele>
        <time>2023-10-05T09:45:45Z</time>
      </trkpt>
      <trkpt lat="48.707" lon="7.16352">
        <ele>342.7</ele>
        <time>2023-10-05T09:45:52Z</time>
      </trkpt>
      <trkpt lat="48.70688" lon="7.16375">
        <ele>344.4</ele>
        <time>2023-10-05T09:45:59Z</time>
      </trkpt>
      <trkpt lat="48.70676" lon="7.16401">
        <ele>346.1</ele>
        <time>2023-10-05T09:46:07Z</time>
      </trkpt>
      <trkpt lat="48.70665" lon="7.16427">
        <ele>347.7</ele>
        <time>2023-10-05T09:46:15Z</time>
      </trkpt>
      <trkpt lat="48.70653" lon="7.16451">
        <ele>348.6</ele>
        <time>2023-10-05T09:46:22Z</time>
      </trkpt>
      <trkpt lat="48.70641" lon="7.16475">
        <ele>349.4</ele>
        <time>2023-10-05T09:46:29Z</time>
      </trkpt>
      <trkpt lat="48.7063" lon="7.16498">
        <ele>350.4</ele>
        <time>2023-10-05T09:46:36Z</time>
      </trkpt>
      <trkpt lat="48.70617" lon="7.16521">
        <ele>351.4</ele>
        <time>2023-10-05T09:46:43Z</time>
      </trkpt>
      <trkpt lat="48.70603" lon="7.16542">
        <ele>352.4</ele>
        <time>2023-10-05T09:46:50Z</time>
      </trkpt>
      <trkpt lat="48.70589" lon="7.1656">
        <ele>353.2</ele>
        <time>2023-10-05T09:46:56Z</time>
      </trkpt>
      <trkpt lat="48.70575" lon="7.16583">
        <ele>354</ele>
        <time>2023-10-05T09:47:03Z</time>
      </trkpt>
      <trkpt lat="48.70563" lon="7.16607">
        <ele>354.9</ele>
        <time>2023-10-05T09:47:10Z</time>
      </trkpt>
      <trkpt lat="48.7055" lon="7.16629">
        <ele>355.6</ele>
        <time>2023-10-05T09:47:17Z</time>
      </trkpt>
      <trkpt lat="48.70537" lon="7.16649">
        <ele>356.1</ele>
        <time>2023-10-05T09:47:23Z</time>
      </trkpt>
      <trkpt lat="48.70525" lon="7.16673">
        <ele>356.6</ele>
        <time>2023-10-05T09:47:30Z</time>
      </trkpt>
      <trkpt lat="48.70511" lon="7.16697">
        <ele>356.5</ele>
        <time>2023-10-05T09:47:37Z</time>
      </trkpt>
      <trkpt lat="48.70497" lon="7.1672">
        <ele>356.1</ele>
        <time>2023-10-05T09:47:44Z</time>
      </trkpt>
      <trkpt lat="48.70487" lon="7.16743">
        <ele>355.6</ele>
        <time>2023-10-05T09:47:51Z</time>
      </trkpt>
      <trkpt lat="48.70473" lon="7.16766">
        <ele>354.8</ele>
        <time>2023-10-05T09:47:58Z</time>
      </trkpt>
      <trkpt lat="48.70459" lon="7.16784">
        <ele>354.3</ele>
        <time>2023-10-05T09:48:04Z</time>
      </trkpt>
      <trkpt lat="48.70445" lon="7.16805">
        <ele>353.8</ele>
        <time>2023-10-05T09:48:10Z</time>
      </trkpt>
      <trkpt lat="48.7043" lon="7.16825">
        <ele>353.7</ele>
        <time>2023-10-05T09:48:16Z</time>
      </trkpt>
      <trkpt lat="48.70415" lon="7.16844">
        <ele>353.7</ele>
        <time>2023-10-05T09:48:22Z</time>
      </trkpt>
      <trkpt lat="48.704" lon="7.16863">
        <ele>353.7</ele>
        <time>2023-10-05T09:48:28Z</time>
      </trkpt>
      <trkpt lat="48.70383" lon="7.16877">
        <ele>354.1</ele>
        <time>2023-10-05T09:48:35Z</time>
      </trkpt>
      <trkpt lat="48.70365" lon="7.16886">
        <ele>354.8</ele>
        <time>2023-10-05T09:48:43Z</time>
      </trkpt>
      <trkpt lat="48.70347" lon="7.16895">
        <ele>355.9</ele>
        <time>2023-10-05T09:48:51Z</time>
      </trkpt>
      <trkpt lat="48.70328" lon="7.16905">
        <ele>357.5</ele>
        <time>2023-10-05T09:48:58Z</time>
      </trkpt>
      <trkpt lat="48.70309" lon="7.16917">
        <ele>359.2</ele>
        <time>2023-10-05T09:49:06Z</time>
      </trkpt>
      <trkpt lat="48.70292" lon="7.16928">
        <ele>360.7</ele>
        <time>2023-10-05T09:49:13Z</time>
      </trkpt>
      <trkpt lat="48.70275" lon="7.1694">
        <ele>362.1</ele>
        <time>2023-10-05T09:49:20Z</time>
      </trkpt>
      <trkpt lat="48.70258" lon="7.16953">
        <ele>363.4</ele>
        <time>2023-10-05T09:49:27Z</time>
      </trkpt>
      <trkpt lat="48.70242" lon="7.16965">
        <ele>364.5</ele>
        <time>2023-10-05T09:49:34Z</time>
      </trkpt>
      <trkpt lat="48.70224" lon="7.16981">
        <ele>365.5</ele>
        <time>2023-10-05T09:49:41Z</time>
      </trkpt>
      <trkpt lat="48.70207" lon="7.16993">
        <ele>366.4</ele>
        <time>2023-10-05T09:49:47Z</time>
      </trkpt>
      <trkpt lat="48.70189" lon="7.17006">
        <ele>367.6</ele>
        <time>2023-10-05T09:49:54Z</time>
      </trkpt>
      <trkpt lat="48.70171" lon="7.17018">
        <ele>369.2</ele>
        <time>2023-10-05T09:50:02Z</time>
      </trkpt>
      <trkpt lat="48.70153" lon="7.1703">
        <ele>370.7</ele>
        <time>2023-10-05T09:50:11Z</time>
      </trkpt>
      <trkpt lat="48.70139" lon="7.17047">
        <ele>372.3</ele>
        <time>2023-10-05T09:50:18Z</time>
      </trkpt>
      <trkpt lat="48.70128" lon="7.17072">
        <ele>373.3</ele>
        <time>2023-10-05T09:50:25Z</time>
      </trkpt>
      <trkpt lat="48.70113" lon="7.1709">
        <ele>374.8</ele>
        <time>2023-10-05T09:50:32Z</time>
      </trkpt>
      <trkpt lat="48.70099" lon="7.17108">
        <ele>376.2</ele>
        <time>2023-10-05T09:50:39Z</time>
      </trkpt>
      <trkpt lat="48.70084" lon="7.17125">
        <ele>377.6</ele>
        <time>2023-10-05T09:50:46Z</time>
      </trkpt>
      <trkpt lat="48.70069" lon="7.17142">
        <ele>379.2</ele>
        <time>2023-10-05T09:50:53Z</time>
      </trkpt>
      <trkpt lat="48.70053" lon="7.1716">
        <ele>380.9</ele>
        <time>2023-10-05T09:51:01Z</time>
      </trkpt>
      <trkpt lat="48.70037" lon="7.17174">
        <ele>382.5</ele>
        <time>2023-10-05T09:51:08Z</time>
      </trkpt>
      <trkpt lat="48.7002" lon="7.17191">
        <ele>384.3</ele>
        <time>2023-10-05T09:51:15Z</time>
      </trkpt>
      <trkpt lat="48.70003" lon="7.1721">
        <ele>386.1</ele>
        <time>2023-10-05T09:51:22Z</time>
      </trkpt>
      <trkpt lat="48.69987" lon="7.17226">
        <ele>387.7</ele>
        <time>2023-10-05T09:51:29Z</time>
      </trkpt>
      <trkpt lat="48.69972" lon="7.17245">
        <ele>389.3</ele>
        <time>2023-10-05T09:51:36Z</time>
      </trkpt>
      <trkpt lat="48.69957" lon="7.17266">
        <ele>390.6</ele>
        <time>2023-10-05T09:51:43Z</time>
      </trkpt>
      <trkpt lat="48.69942" lon="7.17287">
        <ele>391.7</ele>
        <time>2023-10-05T09:51:50Z</time>
      </trkpt>
      <trkpt lat="48.69926" lon="7.17304">
        <ele>392.8</ele>
        <time>2023-10-05T09:51:57Z</time>
      </trkpt>
      <trkpt lat="48.69915" lon="7.17327">
        <ele>393.7</ele>
        <time>2023-10-05T09:52:05Z</time>
      </trkpt>
      <trkpt lat="48.69903" lon="7.1735">
        <ele>394.7</ele>
        <time>2023-10-05T09:52:12Z</time>
      </trkpt>
      <trkpt lat="48.69889" lon="7.17373">
        <ele>395.9</ele>
        <time>2023-10-05T09:52:19Z</time>
      </trkpt>
      <trkpt lat="48.69876" lon="7.17393">
        <ele>397.1</ele>
        <time>2023-10-05T09:52:25Z</time>
      </trkpt>
      <trkpt lat="48.69868" lon="7.17419">
        <ele>398</ele>
        <time>2023-10-05T09:52:31Z</time>
      </trkpt>
      <trkpt lat="48.6986" lon="7.17444">
        <ele>399.3</ele>
        <time>2023-10-05T09:52:37Z</time>
      </trkpt>
      <trkpt lat="48.69846" lon="7.17463">
        <ele>400.3</ele>
        <time>2023-10-05T09:52:44Z</time>
      </trkpt>
      <trkpt lat="48.69831" lon="7.17482">
        <ele>400.8</ele>
        <time>2023-10-05T09:52:51Z</time>
      </trkpt>
      <trkpt lat="48.69815" lon="7.17501">
        <ele>401.4</ele>
        <time>2023-10-05T09:52:58Z</time>
      </trkpt>
      <trkpt lat="48.69815" lon="7.17503">
        <ele>401.8</ele>
        <time>2023-10-05T09:52:59Z</time>
      </trkpt>
      <trkpt lat="48.69816" lon="7.17505">
        <ele>402.1</ele>
        <time>2023-10-05T09:53:01Z</time>
      </trkpt>
      <trkpt lat="48.69826" lon="7.17512">
        <ele>402.2</ele>
        <time>2023-10-05T09:53:08Z</time>
      </trkpt>
      <trkpt lat="48.69844" lon="7.17513">
        <ele>402.3</ele>
        <time>2023-10-05T09:53:17Z</time>
      </trkpt>
      <trkpt lat="48.69847" lon="7.17541">
        <ele>401.9</ele>
        <time>2023-10-05T09:53:25Z</time>
      </trkpt>
      <trkpt lat="48.69848" lon="7.17571">
        <ele>401.8</ele>
        <time>2023-10-05T09:53:32Z</time>
      </trkpt>
      <trkpt lat="48.69846" lon="7.17602">
        <ele>401.2</ele>
        <time>2023-10-05T09:53:40Z</time>
      </trkpt>
      <trkpt lat="48.69844" lon="7.17632">
        <ele>399.3</ele>
        <time>2023-10-05T09:53:48Z</time>
      </trkpt>
      <trkpt lat="48.69843" lon="7.17662">
        <ele>397.4</ele>
        <time>2023-10-05T09:53:56Z</time>
      </trkpt>
      <trkpt lat="48.69845" lon="7.17695">
        <ele>394.7</ele>
        <time>2023-10-05T09:54:02Z</time>
      </trkpt>
      <trkpt lat="48.69846" lon="7.17724">
        <ele>392.6</ele>
        <time>2023-10-05T09:54:06Z</time>
      </trkpt>
      <trkpt lat="48.69842" lon="7.17753">
        <ele>390.6</ele>
        <time>2023-10-05T09:54:11Z</time>
      </trkpt>
      <trkpt lat="48.6983" lon="7.17777">
        <ele>388.9</ele>
        <time>2023-10-05T09:54:15Z</time>
      </trkpt>
      <trkpt lat="48.69822" lon="7.17802">
        <ele>388.2</ele>
        <time>2023-10-05T09:54:20Z</time>
      </trkpt>
      <trkpt lat="48.69811" lon="7.17828">
        <ele>387.9</ele>
        <time>2023-10-05T09:54:26Z</time>
      </trkpt>
      <trkpt lat="48.69799" lon="7.17852">
        <ele>387.5</ele>
        <time>2023-10-05T09:54:34Z</time>
      </trkpt>
      <trkpt lat="48.69786" lon="7.17874">
        <ele>387.4</ele>
        <time>2023-10-05T09:54:43Z</time>
      </trkpt>
      <trkpt lat="48.69775" lon="7.17898">
        <ele>386.2</ele>
        <time>2023-10-05T09:54:49Z</time>
      </trkpt>
      <trkpt lat="48.69766" lon="7.17925">
        <ele>385.1</ele>
        <time>2023-10-05T09:54:56Z</time>
      </trkpt>
      <trkpt lat="48.69755" lon="7.17949">
        <ele>382.6</ele>
        <time>2023-10-05T09:55:03Z</time>
      </trkpt>
      <trkpt lat="48.69739" lon="7.17964">
        <ele>380.9</ele>
        <time>2023-10-05T09:55:11Z</time>
      </trkpt>
      <trkpt lat="48.69723" lon="7.17979">
        <ele>379.3</ele>
        <time>2023-10-05T09:55:18Z</time>
      </trkpt>
      <trkpt lat="48.69705" lon="7.17999">
        <ele>377.3</ele>
        <time>2023-10-05T09:55:26Z</time>
      </trkpt>
      <trkpt lat="48.69686" lon="7.18011">
        <ele>376</ele>
        <time>2023-10-05T09:55:32Z</time>
      </trkpt>
      <trkpt lat="48.69669" lon="7.18025">
        <ele>375.3</ele>
        <time>2023-10-05T09:55:38Z</time>
      </trkpt>
      <trkpt lat="48.69652" lon="7.18044">
        <ele>374.6</ele>
        <time>2023-10-05T09:55:44Z</time>
      </trkpt>
      <trkpt lat="48.69638" lon="7.18067">
        <ele>374.3</ele>
        <time>2023-10-05T09:55:48Z</time>
      </trkpt>
      <trkpt lat="48.69627" lon="7.18089">
        <ele>374</ele>
        <time>2023-10-05T09:55:53Z</time>
      </trkpt>
      <trkpt lat="48.69617" lon="7.18113">
        <ele>373.4</ele>
        <time>2023-10-05T09:56:00Z</time>
      </trkpt>
      <trkpt lat="48.69608" lon="7.18139">
        <ele>372.3</ele>
        <time>2023-10-05T09:56:07Z</time>
      </trkpt>
      <trkpt lat="48.69602" lon="7.18166">
        <ele>370.8</ele>
        <time>2023-10-05T09:56:14Z</time>
      </trkpt>
      <trkpt lat="48.69592" lon="7.1819">
        <ele>371.2</ele>
        <time>2023-10-05T09:56:20Z</time>
      </trkpt>
      <trkpt lat="48.69582" lon="7.18216">
        <ele>372.4</ele>
        <time>2023-10-05T09:56:27Z</time>
      </trkpt>
      <trkpt lat="48.69574" lon="7.18242">
        <ele>372.1</ele>
        <time>2023-10-05T09:56:35Z</time>
      </trkpt>
      <trkpt lat="48.69565" lon="7.18267">
        <ele>372</ele>
        <time>2023-10-05T09:56:42Z</time>
      </trkpt>
      <trkpt lat="48.69553" lon="7.18289">
        <ele>374.1</ele>
        <time>2023-10-05T09:56:48Z</time>
      </trkpt>
      <trkpt lat="48.69539" lon="7.18311">
        <ele>376.2</ele>
        <time>2023-10-05T09:56:55Z</time>
      </trkpt>
      <trkpt lat="48.69526" lon="7.1833">
        <ele>378.4</ele>
        <time>2023-10-05T09:57:01Z</time>
      </trkpt>
      <trkpt lat="48.69509" lon="7.18348">
        <ele>379.3</ele>
        <time>2023-10-05T09:57:08Z</time>
      </trkpt>
      <trkpt lat="48.69493" lon="7.18367">
        <ele>381.8</ele>
        <time>2023-10-05T09:57:14Z</time>
      </trkpt>
      <trkpt lat="48.69477" lon="7.18392">
        <ele>383.9</ele>
        <time>2023-10-05T09:57:20Z</time>
      </trkpt>
      <trkpt lat="48.69463" lon="7.18416">
        <ele>386.5</ele>
        <time>2023-10-05T09:57:25Z</time>
      </trkpt>
      <trkpt lat="48.69461" lon="7.18425">
        <ele>386.9</ele>
        <time>2023-10-05T09:57:27Z</time>
      </trkpt>
      <trkpt lat="48.69472" lon="7.18446">
        <ele>382.1</ele>
        <time>2023-10-05T09:57:33Z</time>
      </trkpt>
      <trkpt lat="48.69489" lon="7.18463">
        <ele>376</ele>
        <time>2023-10-05T09:57:40Z</time>
      </trkpt>
      <trkpt lat="48.69505" lon="7.18481">
        <ele>370.4</ele>
        <time>2023-10-05T09:57:47Z</time>
      </trkpt>
      <trkpt lat="48.69521" lon="7.18502">
        <ele>367</ele>
        <time>2023-10-05T09:57:53Z</time>
      </trkpt>
      <trkpt lat="48.69531" lon="7.18527">
        <ele>364.3</ele>
        <time>2023-10-05T09:57:59Z</time>
      </trkpt>
      <trkpt lat="48.69533" lon="7.18554">
        <ele>364.7</ele>
        <time>2023-10-05T09:58:05Z</time>
      </trkpt>
      <trkpt lat="48.69548" lon="7.18576">
        <ele>361.6</ele>
        <time>2023-10-05T09:58:11Z</time>
      </trkpt>
      <trkpt lat="48.69562" lon="7.18593">
        <ele>357.7</ele>
        <time>2023-10-05T09:58:16Z</time>
      </trkpt>
      <trkpt lat="48.69577" lon="7.18617">
        <ele>353.9</ele>
        <time>2023-10-05T09:58:22Z</time>
      </trkpt>
      <trkpt lat="48.69588" lon="7.18638">
        <ele>349.3</ele>
        <time>2023-10-05T09:58:27Z</time>
      </trkpt>
      <trkpt lat="48.69599" lon="7.18666">
        <ele>344</ele>
        <time>2023-10-05T09:58:33Z</time>
      </trkpt>
      <trkpt lat="48.69602" lon="7.18697">
        <ele>341.7</ele>
        <time>2023-10-05T09:58:39Z</time>
      </trkpt>
      <trkpt lat="48.69603" lon="7.18726">
        <ele>340.7</ele>
        <time>2023-10-05T09:58:45Z</time>
      </trkpt>
      <trkpt lat="48.69602" lon="7.18754">
        <ele>340.7</ele>
        <time>2023-10-05T09:58:52Z</time>
      </trkpt>
      <trkpt lat="48.69593" lon="7.1878">
        <ele>340.8</ele>
        <time>2023-10-05T09:59:01Z</time>
      </trkpt>
      <trkpt lat="48.69585" lon="7.18804">
        <ele>340.6</ele>
        <time>2023-10-05T09:59:11Z</time>
      </trkpt>
      <trkpt lat="48.6957" lon="7.18819">
        <ele>344.6</ele>
        <time>2023-10-05T09:59:27Z</time>
      </trkpt>
      <trkpt lat="48.69565" lon="7.18827">
        <ele>347</ele>
        <time>2023-10-05T09:59:37Z</time>
      </trkpt>
      <trkpt lat="48.69563" lon="7.18832">
        <ele>347.8</ele>
        <time>2023-10-05T09:59:41Z</time>
      </trkpt>
      <trkpt lat="48.6956" lon="7.18835">
        <ele>349.7</ele>
        <time>2023-10-05T09:59:43Z</time>
      </trkpt>
      <trkpt lat="48.69556" lon="7.18861">
        <ele>348.8</ele>
        <time>2023-10-05T09:59:50Z</time>
      </trkpt>
      <trkpt lat="48.69549" lon="7.18888">
        <ele>350.4</ele>
        <time>2023-10-05T09:59:56Z</time>
      </trkpt>
      <trkpt lat="48.69538" lon="7.18912">
        <ele>352.9</ele>
        <time>2023-10-05T10:00:02Z</time>
      </trkpt>
      <trkpt lat="48.69527" lon="7.18939">
        <ele>354.3</ele>
        <time>2023-10-05T10:00:08Z</time>
      </trkpt>
      <trkpt lat="48.69517" lon="7.18966">
        <ele>353.6</ele>
        <time>2023-10-05T10:00:15Z</time>
      </trkpt>
      <trkpt lat="48.69507" lon="7.18988">
        <ele>353</ele>
        <time>2023-10-05T10:00:21Z</time>
      </trkpt>
      <trkpt lat="48.69504" lon="7.19017">
        <ele>352.4</ele>
        <time>2023-10-05T10:00:27Z</time>
      </trkpt>
      <trkpt lat="48.69497" lon="7.19046">
        <ele>351.7</ele>
        <time>2023-10-05T10:00:33Z</time>
      </trkpt>
      <trkpt lat="48.69488" lon="7.19072">
        <ele>351.1</ele>
        <time>2023-10-05T10:00:39Z</time>
      </trkpt>
      <trkpt lat="48.69475" lon="7.19091">
        <ele>350.5</ele>
        <time>2023-10-05T10:00:45Z</time>
      </trkpt>
      <trkpt lat="48.69462" lon="7.19114">
        <ele>349.6</ele>
        <time>2023-10-05T10:00:53Z</time>
      </trkpt>
      <trkpt lat="48.69451" lon="7.19137">
        <ele>348.7</ele>
        <time>2023-10-05T10:00:59Z</time>
      </trkpt>
      <trkpt lat="48.69438" lon="7.19163">
        <ele>347.8</ele>
        <time>2023-10-05T10:01:06Z</time>
      </trkpt>
      <trkpt lat="48.69425" lon="7.19186">
        <ele>346.7</ele>
        <time>2023-10-05T10:01:13Z</time>
      </trkpt>
      <trkpt lat="48.69416" lon="7.19212">
        <ele>345.3</ele>
        <time>2023-10-05T10:01:19Z</time>
      </trkpt>
      <trkpt lat="48.69406" lon="7.19236">
        <ele>344.3</ele>
        <time>2023-10-05T10:01:24Z</time>
      </trkpt>
      <trkpt lat="48.69394" lon="7.19259">
        <ele>343.5</ele>
        <time>2023-10-05T10:01:30Z</time>
      </trkpt>
      <trkpt lat="48.69378" lon="7.19272">
        <ele>342.9</ele>
        <time>2023-10-05T10:01:38Z</time>
      </trkpt>
      <trkpt lat="48.69366" lon="7.19273">
        <ele>342.6</ele>
        <time>2023-10-05T10:01:43Z</time>
      </trkpt>
      <trkpt lat="48.69359" lon="7.19277">
        <ele>342.5</ele>
        <time>2023-10-05T10:01:47Z</time>
      </trkpt>
      <trkpt lat="48.69348" lon="7.19269">
        <ele>342.2</ele>
        <time>2023-10-05T10:01:53Z</time>
      </trkpt>
      <trkpt lat="48.6933" lon="7.19259">
        <ele>341.7</ele>
        <time>2023-10-05T10:02:02Z</time>
      </trkpt>
      <trkpt lat="48.6932" lon="7.19236">
        <ele>341.1</ele>
        <time>2023-10-05T10:02:11Z</time>
      </trkpt>
      <trkpt lat="48.69323" lon="7.19208">
        <ele>345.6</ele>
        <time>2023-10-05T10:02:20Z</time>
      </trkpt>
      <trkpt lat="48.69327" lon="7.19182">
        <ele>349.2</ele>
        <time>2023-10-05T10:02:29Z</time>
      </trkpt>
      <trkpt lat="48.69331" lon="7.19154">
        <ele>353.5</ele>
        <time>2023-10-05T10:02:40Z</time>
      </trkpt>
      <trkpt lat="48.69329" lon="7.19126">
        <ele>360.3</ele>
        <time>2023-10-05T10:02:54Z</time>
      </trkpt>
      <trkpt lat="48.6933" lon="7.19099">
        <ele>366.2</ele>
        <time>2023-10-05T10:03:07Z</time>
      </trkpt>
      <trkpt lat="48.69334" lon="7.19077">
        <ele>370.9</ele>
        <time>2023-10-05T10:03:19Z</time>
      </trkpt>
      <trkpt lat="48.69341" lon="7.19051">
        <ele>376.5</ele>
        <time>2023-10-05T10:03:30Z</time>
      </trkpt>
      <trkpt lat="48.69341" lon="7.19024">
        <ele>383.5</ele>
        <time>2023-10-05T10:03:41Z</time>
      </trkpt>
      <trkpt lat="48.69329" lon="7.18999">
        <ele>382.8</ele>
        <time>2023-10-05T10:03:52Z</time>
      </trkpt>
      <trkpt lat="48.69314" lon="7.18979">
        <ele>382.2</ele>
        <time>2023-10-05T10:04:00Z</time>
      </trkpt>
      <trkpt lat="48.69298" lon="7.18964">
        <ele>381.1</ele>
        <time>2023-10-05T10:04:08Z</time>
      </trkpt>
      <trkpt lat="48.69282" lon="7.18945">
        <ele>379.8</ele>
        <time>2023-10-05T10:04:15Z</time>
      </trkpt>
      <trkpt lat="48.69269" lon="7.18926">
        <ele>378.9</ele>
        <time>2023-10-05T10:04:21Z</time>
      </trkpt>
      <trkpt lat="48.69253" lon="7.1891">
        <ele>377.7</ele>
        <time>2023-10-05T10:04:27Z</time>
      </trkpt>
      <trkpt lat="48.69238" lon="7.18895">
        <ele>376.7</ele>
        <time>2023-10-05T10:04:33Z</time>
      </trkpt>
      <trkpt lat="48.69227" lon="7.18873">
        <ele>375.4</ele>
        <time>2023-10-05T10:04:41Z</time>
      </trkpt>
      <trkpt lat="48.69207" lon="7.18869">
        <ele>374</ele>
        <time>2023-10-05T10:04:46Z</time>
      </trkpt>
      <trkpt lat="48.69186" lon="7.18868">
        <ele>372.6</ele>
        <time>2023-10-05T10:04:51Z</time>
      </trkpt>
      <trkpt lat="48.69167" lon="7.18866">
        <ele>371</ele>
        <time>2023-10-05T10:04:56Z</time>
      </trkpt>
      <trkpt lat="48.69147" lon="7.18865">
        <ele>369.8</ele>
        <time>2023-10-05T10:05:01Z</time>
      </trkpt>
      <trkpt lat="48.69128" lon="7.18866">
        <ele>369.4</ele>
        <time>2023-10-05T10:05:08Z</time>
      </trkpt>
      <trkpt lat="48.69109" lon="7.18871">
        <ele>369.5</ele>
        <time>2023-10-05T10:05:14Z</time>
      </trkpt>
      <trkpt lat="48.69091" lon="7.18878">
        <ele>370.3</ele>
        <time>2023-10-05T10:05:20Z</time>
      </trkpt>
      <trkpt lat="48.69073" lon="7.18888">
        <ele>370.9</ele>
        <time>2023-10-05T10:05:27Z</time>
      </trkpt>
      <trkpt lat="48.69057" lon="7.18905">
        <ele>371.1</ele>
        <time>2023-10-05T10:05:34Z</time>
      </trkpt>
      <trkpt lat="48.6904" lon="7.18925">
        <ele>371.2</ele>
        <time>2023-10-05T10:05:40Z</time>
      </trkpt>
      <trkpt lat="48.69029" lon="7.18946">
        <ele>371</ele>
        <time>2023-10-05T10:05:45Z</time>
      </trkpt>
      <trkpt lat="48.69018" lon="7.1897">
        <ele>370.7</ele>
        <time>2023-10-05T10:05:51Z</time>
      </trkpt>
      <trkpt lat="48.69007" lon="7.18995">
        <ele>370.3</ele>
        <time>2023-10-05T10:05:57Z</time>
      </trkpt>
      <trkpt lat="48.69" lon="7.19022">
        <ele>370</ele>
        <time>2023-10-05T10:06:03Z</time>
      </trkpt>
      <trkpt lat="48.68995" lon="7.19052">
        <ele>369.7</ele>
        <time>2023-10-05T10:06:10Z</time>
      </trkpt>
      <trkpt lat="48.68986" lon="7.19076">
        <ele>369.6</ele>
        <time>2023-10-05T10:06:17Z</time>
      </trkpt>
      <trkpt lat="48.68969" lon="7.19093">
        <ele>369.8</ele>
        <time>2023-10-05T10:06:24Z</time>
      </trkpt>
      <trkpt lat="48.6895" lon="7.19092">
        <ele>370.4</ele>
        <time>2023-10-05T10:06:31Z</time>
      </trkpt>
      <trkpt lat="48.68932" lon="7.19077">
        <ele>370.7</ele>
        <time>2023-10-05T10:06:38Z</time>
      </trkpt>
      <trkpt lat="48.68918" lon="7.19058">
        <ele>371.1</ele>
        <time>2023-10-05T10:06:44Z</time>
      </trkpt>
      <trkpt lat="48.68903" lon="7.19038">
        <ele>371.9</ele>
        <time>2023-10-05T10:06:51Z</time>
      </trkpt>
      <trkpt lat="48.6889" lon="7.19017">
        <ele>371.9</ele>
        <time>2023-10-05T10:06:59Z</time>
      </trkpt>
      <trkpt lat="48.68882" lon="7.18991">
        <ele>371.9</ele>
        <time>2023-10-05T10:07:06Z</time>
      </trkpt>
      <trkpt lat="48.68876" lon="7.18962">
        <ele>371.7</ele>
        <time>2023-10-05T10:07:13Z</time>
      </trkpt>
      <trkpt lat="48.6887" lon="7.18934">
        <ele>371.5</ele>
        <time>2023-10-05T10:07:19Z</time>
      </trkpt>
      <trkpt lat="48.68868" lon="7.18904">
        <ele>371.2</ele>
        <time>2023-10-05T10:07:25Z</time>
      </trkpt>
      <trkpt lat="48.68872" lon="7.18873">
        <ele>370.9</ele>
        <time>2023-10-05T10:07:30Z</time>
      </trkpt>
      <trkpt lat="48.68886" lon="7.18848">
        <ele>370.6</ele>
        <time>2023-10-05T10:07:35Z</time>
      </trkpt>
      <trkpt lat="48.68893" lon="7.18821">
        <ele>370.4</ele>
        <time>2023-10-05T10:07:40Z</time>
      </trkpt>
      <trkpt lat="48.68901" lon="7.18795">
        <ele>370.3</ele>
        <time>2023-10-05T10:07:46Z</time>
      </trkpt>
      <trkpt lat="48.68909" lon="7.1877">
        <ele>370.6</ele>
        <time>2023-10-05T10:07:52Z</time>
      </trkpt>
      <trkpt lat="48.6891" lon="7.1874">
        <ele>371</ele>
        <time>2023-10-05T10:07:59Z</time>
      </trkpt>
      <trkpt lat="48.6891" lon="7.18709">
        <ele>371.8</ele>
        <time>2023-10-05T10:08:05Z</time>
      </trkpt>
      <trkpt lat="48.68899" lon="7.18681">
        <ele>372.9</ele>
        <time>2023-10-05T10:08:11Z</time>
      </trkpt>
      <trkpt lat="48.68887" lon="7.18656">
        <ele>373.7</ele>
        <time>2023-10-05T10:08:17Z</time>
      </trkpt>
      <trkpt lat="48.6887" lon="7.18637">
        <ele>374.3</ele>
        <time>2023-10-05T10:08:23Z</time>
      </trkpt>
      <trkpt lat="48.68855" lon="7.18619">
        <ele>374.7</ele>
        <time>2023-10-05T10:08:29Z</time>
      </trkpt>
      <trkpt lat="48.6884" lon="7.18598">
        <ele>375.1</ele>
        <time>2023-10-05T10:08:37Z</time>
      </trkpt>
      <trkpt lat="48.68827" lon="7.18573">
        <ele>375.3</ele>
        <time>2023-10-05T10:08:44Z</time>
      </trkpt>
      <trkpt lat="48.68816" lon="7.18548">
        <ele>375.1</ele>
        <time>2023-10-05T10:08:50Z</time>
      </trkpt>
      <trkpt lat="48.68811" lon="7.18518">
        <ele>374.6</ele>
        <time>2023-10-05T10:08:56Z</time>
      </trkpt>
      <trkpt lat="48.6881" lon="7.18489">
        <ele>373.7</ele>
        <time>2023-10-05T10:09:02Z</time>
      </trkpt>
      <trkpt lat="48.68804" lon="7.18462">
        <ele>372.9</ele>
        <time>2023-10-05T10:09:07Z</time>
      </trkpt>
      <trkpt lat="48.68797" lon="7.18433">
        <ele>372.1</ele>
        <time>2023-10-05T10:09:13Z</time>
      </trkpt>
      <trkpt lat="48.68794" lon="7.18403">
        <ele>371.4</ele>
        <time>2023-10-05T10:09:19Z</time>
      </trkpt>
      <trkpt lat="48.68791" lon="7.18374">
        <ele>370.6</ele>
        <time>2023-10-05T10:09:25Z</time>
      </trkpt>
      <trkpt lat="48.68785" lon="7.18346">
        <ele>370</ele>
        <time>2023-10-05T10:09:31Z</time>
      </trkpt>
      <trkpt lat="48.68781" lon="7.18319">
        <ele>369.2</ele>
        <time>2023-10-05T10:09:37Z</time>
      </trkpt>
      <trkpt lat="48.68783" lon="7.18291">
        <ele>368.4</ele>
        <time>2023-10-05T10:09:43Z</time>
      </trkpt>
      <trkpt lat="48.68781" lon="7.18261">
        <ele>367.5</ele>
        <time>2023-10-05T10:09:50Z</time>
      </trkpt>
      <trkpt lat="48.68779" lon="7.18233">
        <ele>366.4</ele>
        <time>2023-10-05T10:09:56Z</time>
      </trkpt>
      <trkpt lat="48.68771" lon="7.18204">
        <ele>365.1</ele>
        <time>2023-10-05T10:10:02Z</time>
      </trkpt>
      <trkpt lat="48.68762" lon="7.18181">
        <ele>364.2</ele>
        <time>2023-10-05T10:10:07Z</time>
      </trkpt>
      <trkpt lat="48.68761" lon="7.18152">
        <ele>363.3</ele>
        <time>2023-10-05T10:10:12Z</time>
      </trkpt>
      <trkpt lat="48.68763" lon="7.18121">
        <ele>362.6</ele>
        <time>2023-10-05T10:10:18Z</time>
      </trkpt>
      <trkpt lat="48.68766" lon="7.1809">
        <ele>361.7</ele>
        <time>2023-10-05T10:10:24Z</time>
      </trkpt>
      <trkpt lat="48.68766" lon="7.1806">
        <ele>360.9</ele>
        <time>2023-10-05T10:10:30Z</time>
      </trkpt>
      <trkpt lat="48.68764" lon="7.18029">
        <ele>359.9</ele>
        <time>2023-10-05T10:10:36Z</time>
      </trkpt>
      <trkpt lat="48.68762" lon="7.17998">
        <ele>359.2</ele>
        <time>2023-10-05T10:10:42Z</time>
      </trkpt>
      <trkpt lat="48.68756" lon="7.17971">
        <ele>358.4</ele>
        <time>2023-10-05T10:10:47Z</time>
      </trkpt>
      <trkpt lat="48.68753" lon="7.17944">
        <ele>357.4</ele>
        <time>2023-10-05T10:10:52Z</time>
      </trkpt>
      <trkpt lat="48.68761" lon="7.17914">
        <ele>356.2</ele>
        <time>2023-10-05T10:10:58Z</time>
      </trkpt>
      <trkpt lat="48.68774" lon="7.17894">
        <ele>355.2</ele>
        <time>2023-10-05T10:11:03Z</time>
      </trkpt>
      <trkpt lat="48.68789" lon="7.17876">
        <ele>354.1</ele>
        <time>2023-10-05T10:11:08Z</time>
      </trkpt>
      <trkpt lat="48.68801" lon="7.17855">
        <ele>353.2</ele>
        <time>2023-10-05T10:11:13Z</time>
      </trkpt>
      <trkpt lat="48.68815" lon="7.17833">
        <ele>352.5</ele>
        <time>2023-10-05T10:11:19Z</time>
      </trkpt>
      <trkpt lat="48.68828" lon="7.17813">
        <ele>352</ele>
        <time>2023-10-05T10:11:25Z</time>
      </trkpt>
      <trkpt lat="48.68845" lon="7.178">
        <ele>351.6</ele>
        <time>2023-10-05T10:11:31Z</time>
      </trkpt>
      <trkpt lat="48.68861" lon="7.17785">
        <ele>351.4</ele>
        <time>2023-10-05T10:11:37Z</time>
      </trkpt>
      <trkpt lat="48.6888" lon="7.17769">
        <ele>351.2</ele>
        <time>2023-10-05T10:11:43Z</time>
      </trkpt>
      <trkpt lat="48.68897" lon="7.17758">
        <ele>351.3</ele>
        <time>2023-10-05T10:11:49Z</time>
      </trkpt>
      <trkpt lat="48.68915" lon="7.17737">
        <ele>351.5</ele>
        <time>2023-10-05T10:11:55Z</time>
      </trkpt>
      <trkpt lat="48.68929" lon="7.1772">
        <ele>351.7</ele>
        <time>2023-10-05T10:12:00Z</time>
      </trkpt>
      <trkpt lat="48.68941" lon="7.17699">
        <ele>352.2</ele>
        <time>2023-10-05T10:12:06Z</time>
      </trkpt>
      <trkpt lat="48.68954" lon="7.17678">
        <ele>353.1</ele>
        <time>2023-10-05T10:12:12Z</time>
      </trkpt>
      <trkpt lat="48.68972" lon="7.17661">
        <ele>354.6</ele>
        <time>2023-10-05T10:12:20Z</time>
      </trkpt>
      <trkpt lat="48.68989" lon="7.17647">
        <ele>356.1</ele>
        <time>2023-10-05T10:12:26Z</time>
      </trkpt>
      <trkpt lat="48.69007" lon="7.17634">
        <ele>357.8</ele>
        <time>2023-10-05T10:12:33Z</time>
      </trkpt>
      <trkpt lat="48.69025" lon="7.17627">
        <ele>359.4</ele>
        <time>2023-10-05T10:12:39Z</time>
      </trkpt>
      <trkpt lat="48.69043" lon="7.1761">
        <ele>361.2</ele>
        <time>2023-10-05T10:12:47Z</time>
      </trkpt>
      <trkpt lat="48.69062" lon="7.17592">
        <ele>362.8</ele>
        <time>2023-10-05T10:12:54Z</time>
      </trkpt>
      <trkpt lat="48.69073" lon="7.17566">
        <ele>362.9</ele>
        <time>2023-10-05T10:12:59Z</time>
      </trkpt>
      <trkpt lat="48.6908" lon="7.17539">
        <ele>363.4</ele>
        <time>2023-10-05T10:13:04Z</time>
      </trkpt>
      <trkpt lat="48.69087" lon="7.17512">
        <ele>363.7</ele>
        <time>2023-10-05T10:13:09Z</time>
      </trkpt>
      <trkpt lat="48.69089" lon="7.17483">
        <ele>363.4</ele>
        <time>2023-10-05T10:13:15Z</time>
      </trkpt>
      <trkpt lat="48.69087" lon="7.17454">
        <ele>360.6</ele>
        <time>2023-10-05T10:13:20Z</time>
      </trkpt>
      <trkpt lat="48.69085" lon="7.17422">
        <ele>356.4</ele>
        <time>2023-10-05T10:13:26Z</time>
      </trkpt>
      <trkpt lat="48.69089" lon="7.17395">
        <ele>355.7</ele>
        <time>2023-10-05T10:13:32Z</time>
      </trkpt>
      <trkpt lat="48.69094" lon="7.17366">
        <ele>354.7</ele>
        <time>2023-10-05T10:13:40Z</time>
      </trkpt>
      <trkpt lat="48.691" lon="7.17339">
        <ele>354.6</ele>
        <time>2023-10-05T10:13:46Z</time>
      </trkpt>
      <trkpt lat="48.6911" lon="7.17312">
        <ele>354.5</ele>
        <time>2023-10-05T10:13:53Z</time>
      </trkpt>
      <trkpt lat="48.6912" lon="7.17288">
        <ele>356.6</ele>
        <time>2023-10-05T10:13:59Z</time>
      </trkpt>
      <trkpt lat="48.69129" lon="7.17261">
        <ele>356.8</ele>
        <time>2023-10-05T10:14:06Z</time>
      </trkpt>
      <trkpt lat="48.6914" lon="7.17236">
        <ele>357.9</ele>
        <time>2023-10-05T10:14:12Z</time>
      </trkpt>
      <trkpt lat="48.69146" lon="7.17208">
        <ele>355.5</ele>
        <time>2023-10-05T10:14:19Z</time>
      </trkpt>
      <trkpt lat="48.69159" lon="7.17187">
        <ele>355.5</ele>
        <time>2023-10-05T10:14:26Z</time>
      </trkpt>
      <trkpt lat="48.69173" lon="7.17162">
        <ele>352.8</ele>
        <time>2023-10-05T10:14:34Z</time>
      </trkpt>
      <trkpt lat="48.69187" lon="7.17144">
        <ele>350.9</ele>
        <time>2023-10-05T10:14:40Z</time>
      </trkpt>
      <trkpt lat="48.69204" lon="7.17131">
        <ele>349.2</ele>
        <time>2023-10-05T10:14:47Z</time>
      </trkpt>
      <trkpt lat="48.69223" lon="7.17126">
        <ele>347.8</ele>
        <time>2023-10-05T10:14:56Z</time>
      </trkpt>
      <trkpt lat="48.69242" lon="7.17123">
        <ele>345.3</ele>
        <time>2023-10-05T10:15:04Z</time>
      </trkpt>
      <trkpt lat="48.69263" lon="7.17122">
        <ele>343.5</ele>
        <time>2023-10-05T10:15:10Z</time>
      </trkpt>
      <trkpt lat="48.69281" lon="7.17113">
        <ele>341.1</ele>
        <time>2023-10-05T10:15:17Z</time>
      </trkpt>
      <trkpt lat="48.69297" lon="7.17096">
        <ele>338.5</ele>
        <time>2023-10-05T10:15:26Z</time>
      </trkpt>
      <trkpt lat="48.69316" lon="7.17083">
        <ele>337.3</ele>
        <time>2023-10-05T10:15:32Z</time>
      </trkpt>
      <trkpt lat="48.69331" lon="7.17067">
        <ele>336.7</ele>
        <time>2023-10-05T10:15:38Z</time>
      </trkpt>
      <trkpt lat="48.69349" lon="7.17051">
        <ele>338.8</ele>
        <time>2023-10-05T10:15:43Z</time>
      </trkpt>
      <trkpt lat="48.6935" lon="7.17022">
        <ele>338.3</ele>
        <time>2023-10-05T10:15:50Z</time>
      </trkpt>
      <trkpt lat="48.69339" lon="7.17">
        <ele>337.3</ele>
        <time>2023-10-05T10:15:55Z</time>
      </trkpt>
      <trkpt lat="48.69322" lon="7.16983">
        <ele>335.4</ele>
        <time>2023-10-05T10:16:00Z</time>
      </trkpt>
      <trkpt lat="48.69303" lon="7.16971">
        <ele>333.3</ele>
        <time>2023-10-05T10:16:06Z</time>
      </trkpt>
      <trkpt lat="48.69287" lon="7.16958">
        <ele>331.9</ele>
        <time>2023-10-05T10:16:13Z</time>
      </trkpt>
      <trkpt lat="48.69281" lon="7.16928">
        <ele>331.7</ele>
        <time>2023-10-05T10:16:20Z</time>
      </trkpt>
      <trkpt lat="48.6927" lon="7.16903">
        <ele>329</ele>
        <time>2023-10-05T10:16:26Z</time>
      </trkpt>
      <trkpt lat="48.69271" lon="7.1687">
        <ele>329.2</ele>
        <time>2023-10-05T10:16:33Z</time>
      </trkpt>
      <trkpt lat="48.69278" lon="7.16844">
        <ele>331.2</ele>
        <time>2023-10-05T10:16:39Z</time>
      </trkpt>
      <trkpt lat="48.69288" lon="7.16821">
        <ele>333.6</ele>
        <time>2023-10-05T10:16:47Z</time>
      </trkpt>
      <trkpt lat="48.69299" lon="7.16799">
        <ele>336.2</ele>
        <time>2023-10-05T10:16:56Z</time>
      </trkpt>
      <trkpt lat="48.69312" lon="7.16777">
        <ele>339.9</ele>
        <time>2023-10-05T10:17:04Z</time>
      </trkpt>
      <trkpt lat="48.69308" lon="7.16759">
        <ele>338.4</ele>
        <time>2023-10-05T10:17:07Z</time>
      </trkpt>
      <trkpt lat="48.69314" lon="7.16728">
        <ele>338.8</ele>
        <time>2023-10-05T10:17:12Z</time>
      </trkpt>
      <trkpt lat="48.69324" lon="7.16697">
        <ele>339.1</ele>
        <time>2023-10-05T10:17:18Z</time>
      </trkpt>
      <trkpt lat="48.69331" lon="7.16672">
        <ele>340.6</ele>
        <time>2023-10-05T10:17:24Z</time>
      </trkpt>
      <trkpt lat="48.69333" lon="7.16643">
        <ele>339.9</ele>
        <time>2023-10-05T10:17:30Z</time>
      </trkpt>
      <trkpt lat="48.69343" lon="7.16618">
        <ele>342.9</ele>
        <time>2023-10-05T10:17:36Z</time>
      </trkpt>
      <trkpt lat="48.69353" lon="7.16595">
        <ele>344.6</ele>
        <time>2023-10-05T10:17:44Z</time>
      </trkpt>
      <trkpt lat="48.69357" lon="7.16582">
        <ele>346.3</ele>
        <time>2023-10-05T10:17:48Z</time>
      </trkpt>
      <trkpt lat="48.69365" lon="7.16555">
        <ele>348.7</ele>
        <time>2023-10-05T10:17:55Z</time>
      </trkpt>
      <trkpt lat="48.69373" lon="7.16528">
        <ele>349.7</ele>
        <time>2023-10-05T10:18:02Z</time>
      </trkpt>
      <trkpt lat="48.69384" lon="7.16506">
        <ele>351.7</ele>
        <time>2023-10-05T10:18:08Z</time>
      </trkpt>
      <trkpt lat="48.69389" lon="7.16479">
        <ele>352.4</ele>
        <time>2023-10-05T10:18:14Z</time>
      </trkpt>
      <trkpt lat="48.69389" lon="7.16448">
        <ele>352.4</ele>
        <time>2023-10-05T10:18:20Z</time>
      </trkpt>
      <trkpt lat="48.69383" lon="7.1642">
        <ele>351.4</ele>
        <time>2023-10-05T10:18:25Z</time>
      </trkpt>
      <trkpt lat="48.69392" lon="7.16391">
        <ele>353.3</ele>
        <time>2023-10-05T10:18:32Z</time>
      </trkpt>
      <trkpt lat="48.69394" lon="7.16361">
        <ele>354.5</ele>
        <time>2023-10-05T10:18:39Z</time>
      </trkpt>
      <trkpt lat="48.69387" lon="7.16332">
        <ele>353.8</ele>
        <time>2023-10-05T10:18:46Z</time>
      </trkpt>
      <trkpt lat="48.6939" lon="7.16305">
        <ele>356.3</ele>
        <time>2023-10-05T10:18:53Z</time>
      </trkpt>
      <trkpt lat="48.6939" lon="7.16276">
        <ele>357.5</ele>
        <time>2023-10-05T10:19:01Z</time>
      </trkpt>
      <trkpt lat="48.69399" lon="7.16249">
        <ele>360.2</ele>
        <time>2023-10-05T10:19:08Z</time>
      </trkpt>
      <trkpt lat="48.69401" lon="7.1622">
        <ele>363.2</ele>
        <time>2023-10-05T10:19:17Z</time>
      </trkpt>
      <trkpt lat="48.69404" lon="7.1619">
        <ele>365.4</ele>
        <time>2023-10-05T10:19:25Z</time>
      </trkpt>
      <trkpt lat="48.69402" lon="7.1616">
        <ele>366</ele>
        <time>2023-10-05T10:19:33Z</time>
      </trkpt>
      <trkpt lat="48.69401" lon="7.16129">
        <ele>366.2</ele>
        <time>2023-10-05T10:19:42Z</time>
      </trkpt>
      <trkpt lat="48.69394" lon="7.16101">
        <ele>365.6</ele>
        <time>2023-10-05T10:19:48Z</time>
      </trkpt>
      <trkpt lat="48.69391" lon="7.16072">
        <ele>365.1</ele>
        <time>2023-10-05T10:19:56Z</time>
      </trkpt>
      <trkpt lat="48.69384" lon="7.16044">
        <ele>364.6</ele>
        <time>2023-10-05T10:20:04Z</time>
      </trkpt>
      <trkpt lat="48.69385" lon="7.16041">
        <ele>364.7</ele>
        <time>2023-10-05T10:20:05Z</time>
      </trkpt>
      <trkpt lat="48.69401" lon="7.16047">
        <ele>365</ele>
        <time>2023-10-05T10:20:16Z</time>
      </trkpt>
      <trkpt lat="48.69418" lon="7.16062">
        <ele>365.5</ele>
        <time>2023-10-05T10:20:22Z</time>
      </trkpt>
      <trkpt lat="48.6943" lon="7.16084">
        <ele>366</ele>
        <time>2023-10-05T10:20:29Z</time>
      </trkpt>
      <trkpt lat="48.6944" lon="7.1611">
        <ele>366.5</ele>
        <time>2023-10-05T10:20:36Z</time>
      </trkpt>
      <trkpt lat="48.69451" lon="7.16135">
        <ele>367</ele>
        <time>2023-10-05T10:20:43Z</time>
      </trkpt>
      <trkpt lat="48.69462" lon="7.16157">
        <ele>367.3</ele>
        <time>2023-10-05T10:20:49Z</time>
      </trkpt>
      <trkpt lat="48.69474" lon="7.16178">
        <ele>367.6</ele>
        <time>2023-10-05T10:20:56Z</time>
      </trkpt>
      <trkpt lat="48.69477" lon="7.16182">
        <ele>367.6</ele>
        <time>2023-10-05T10:20:59Z</time>
      </trkpt>
      <trkpt lat="48.69492" lon="7.16163">
        <ele>368.6</ele>
        <time>2023-10-05T10:21:09Z</time>
      </trkpt>
      <trkpt lat="48.69508" lon="7.16146">
        <ele>369.9</ele>
        <time>2023-10-05T10:21:18Z</time>
      </trkpt>
      <trkpt lat="48.69522" lon="7.16126">
        <ele>370.9</ele>
        <time>2023-10-05T10:21:27Z</time>
      </trkpt>
      <trkpt lat="48.69538" lon="7.1611">
        <ele>372.6</ele>
        <time>2023-10-05T10:21:35Z</time>
      </trkpt>
      <trkpt lat="48.69552" lon="7.16089">
        <ele>373.7</ele>
        <time>2023-10-05T10:21:43Z</time>
      </trkpt>
      <trkpt lat="48.69566" lon="7.16069">
        <ele>375.2</ele>
        <time>2023-10-05T10:21:51Z</time>
      </trkpt>
      <trkpt lat="48.69582" lon="7.1605">
        <ele>376.7</ele>
        <time>2023-10-05T10:21:59Z</time>
      </trkpt>
      <trkpt lat="48.69598" lon="7.16036">
        <ele>377.6</ele>
        <time>2023-10-05T10:22:06Z</time>
      </trkpt>
      <trkpt lat="48.69614" lon="7.1602">
        <ele>377.7</ele>
        <time>2023-10-05T10:22:13Z</time>
      </trkpt>
      <trkpt lat="48.6963" lon="7.16002">
        <ele>377.5</ele>
        <time>2023-10-05T10:22:19Z</time>
      </trkpt>
      <trkpt lat="48.69647" lon="7.15984">
        <ele>377.3</ele>
        <time>2023-10-05T10:22:26Z</time>
      </trkpt>
      <trkpt lat="48.69649" lon="7.15984">
        <ele>377.4</ele>
        <time>2023-10-05T10:22:27Z</time>
      </trkpt>
      <trkpt lat="48.69665" lon="7.16002">
        <ele>377.6</ele>
        <time>2023-10-05T10:22:34Z</time>
      </trkpt>
      <trkpt lat="48.69682" lon="7.16021">
        <ele>377.7</ele>
        <time>2023-10-05T10:22:40Z</time>
      </trkpt>
      <trkpt lat="48.69697" lon="7.16038">
        <ele>377.7</ele>
        <time>2023-10-05T10:22:45Z</time>
      </trkpt>
      <trkpt lat="48.69713" lon="7.16052">
        <ele>377.5</ele>
        <time>2023-10-05T10:22:50Z</time>
      </trkpt>
      <trkpt lat="48.69732" lon="7.1606">
        <ele>377.1</ele>
        <time>2023-10-05T10:22:56Z</time>
      </trkpt>
      <trkpt lat="48.6975" lon="7.16062">
        <ele>376.7</ele>
        <time>2023-10-05T10:23:02Z</time>
      </trkpt>
      <trkpt lat="48.69769" lon="7.1606">
        <ele>376.1</ele>
        <time>2023-10-05T10:23:08Z</time>
      </trkpt>
      <trkpt lat="48.6979" lon="7.16058">
        <ele>375.4</ele>
        <time>2023-10-05T10:23:14Z</time>
      </trkpt>
      <trkpt lat="48.6981" lon="7.16056">
        <ele>374.5</ele>
        <time>2023-10-05T10:23:20Z</time>
      </trkpt>
      <trkpt lat="48.69831" lon="7.16058">
        <ele>373.7</ele>
        <time>2023-10-05T10:23:26Z</time>
      </trkpt>
      <trkpt lat="48.69821" lon="7.16081">
        <ele>374.3</ele>
        <time>2023-10-05T10:23:32Z</time>
      </trkpt>
      <trkpt lat="48.69807" lon="7.161">
        <ele>375.1</ele>
        <time>2023-10-05T10:23:38Z</time>
      </trkpt>
      <trkpt lat="48.69793" lon="7.1612">
        <ele>376.1</ele>
        <time>2023-10-05T10:23:44Z</time>
      </trkpt>
      <trkpt lat="48.69782" lon="7.16142">
        <ele>376.9</ele>
        <time>2023-10-05T10:23:50Z</time>
      </trkpt>
      <trkpt lat="48.69777" lon="7.16171">
        <ele>377.5</ele>
        <time>2023-10-05T10:23:57Z</time>
      </trkpt>
      <trkpt lat="48.69783" lon="7.162">
        <ele>377.8</ele>
        <time>2023-10-05T10:24:04Z</time>
      </trkpt>
      <trkpt lat="48.69794" lon="7.16221">
        <ele>378</ele>
        <time>2023-10-05T10:24:10Z</time>
      </trkpt>
      <trkpt lat="48.69806" lon="7.16243">
        <ele>378.1</ele>
        <time>2023-10-05T10:24:16Z</time>
      </trkpt>
      <trkpt lat="48.69818" lon="7.16268">
        <ele>378.1</ele>
        <time>2023-10-05T10:24:23Z</time>
      </trkpt>
      <trkpt lat="48.69819" lon="7.16296">
        <ele>378</ele>
        <time>2023-10-05T10:24:29Z</time>
      </trkpt>
      <trkpt lat="48.69813" lon="7.16322">
        <ele>378.2</ele>
        <time>2023-10-05T10:24:35Z</time>
      </trkpt>
      <trkpt lat="48.69806" lon="7.16351">
        <ele>378.4</ele>
        <time>2023-10-05T10:24:41Z</time>
      </trkpt>
      <trkpt lat="48.69798" lon="7.16377">
        <ele>378.6</ele>
        <time>2023-10-05T10:24:47Z</time>
      </trkpt>
      <trkpt lat="48.69791" lon="7.16402">
        <ele>379</ele>
        <time>2023-10-05T10:24:53Z</time>
      </trkpt>
      <trkpt lat="48.69788" lon="7.16433">
        <ele>379.3</ele>
        <time>2023-10-05T10:25:00Z</time>
      </trkpt>
      <trkpt lat="48.69787" lon="7.16461">
        <ele>379.6</ele>
        <time>2023-10-05T10:25:06Z</time>
      </trkpt>
      <trkpt lat="48.69787" lon="7.16488">
        <ele>379.6</ele>
        <time>2023-10-05T10:25:12Z</time>
      </trkpt>
      <trkpt lat="48.69787" lon="7.16517">
        <ele>379.6</ele>
        <time>2023-10-05T10:25:18Z</time>
      </trkpt>
      <trkpt lat="48.69786" lon="7.16544">
        <ele>379.7</ele>
        <time>2023-10-05T10:25:24Z</time>
      </trkpt>
      <trkpt lat="48.69786" lon="7.16575">
        <ele>379.7</ele>
        <time>2023-10-05T10:25:31Z</time>
      </trkpt>
      <trkpt lat="48.69788" lon="7.16606">
        <ele>379.9</ele>
        <time>2023-10-05T10:25:38Z</time>
      </trkpt>
      <trkpt lat="48.69791" lon="7.16635">
        <ele>380.2</ele>
        <time>2023-10-05T10:25:45Z</time>
      </trkpt>
      <trkpt lat="48.69796" lon="7.16665">
        <ele>380.6</ele>
        <time>2023-10-05T10:25:52Z</time>
      </trkpt>
      <trkpt lat="48.69804" lon="7.16693">
        <ele>381.2</ele>
        <time>2023-10-05T10:25:59Z</time>
      </trkpt>
      <trkpt lat="48.69806" lon="7.16721">
        <ele>381.8</ele>
        <time>2023-10-05T10:26:06Z</time>
      </trkpt>
      <trkpt lat="48.69809" lon="7.16746">
        <ele>382.4</ele>
        <time>2023-10-05T10:26:14Z</time>
      </trkpt>
      <trkpt lat="48.69811" lon="7.16747">
        <ele>382.1</ele>
        <time>2023-10-05T10:26:15Z</time>
      </trkpt>
      <trkpt lat="48.69827" lon="7.16736">
        <ele>380.7</ele>
        <time>2023-10-05T10:26:22Z</time>
      </trkpt>
      <trkpt lat="48.69844" lon="7.16719">
        <ele>378.7</ele>
        <time>2023-10-05T10:26:29Z</time>
      </trkpt>
      <trkpt lat="48.69861" lon="7.16704">
        <ele>376.7</ele>
        <time>2023-10-05T10:26:36Z</time>
      </trkpt>
      <trkpt lat="48.69878" lon="7.16688">
        <ele>375.2</ele>
        <time>2023-10-05T10:26:44Z</time>
      </trkpt>
      <trkpt lat="48.69878" lon="7.16685">
        <ele>374.8</ele>
        <time>2023-10-05T10:26:45Z</time>
      </trkpt>
      <trkpt lat="48.69876" lon="7.16679">
        <ele>374.5</ele>
        <time>2023-10-05T10:26:47Z</time>
      </trkpt>
      <trkpt lat="48.69873" lon="7.16653">
        <ele>373.1</ele>
        <time>2023-10-05T10:26:56Z</time>
      </trkpt>
      <trkpt lat="48.69887" lon="7.16635">
        <ele>372.2</ele>
        <time>2023-10-05T10:27:02Z</time>
      </trkpt>
      <trkpt lat="48.69906" lon="7.16626">
        <ele>371.7</ele>
        <time>2023-10-05T10:27:07Z</time>
      </trkpt>
      <trkpt lat="48.69924" lon="7.1662">
        <ele>370.8</ele>
        <time>2023-10-05T10:27:12Z</time>
      </trkpt>
      <trkpt lat="48.69944" lon="7.16615">
        <ele>370.3</ele>
        <time>2023-10-05T10:27:18Z</time>
      </trkpt>
      <trkpt lat="48.69964" lon="7.16608">
        <ele>369.5</ele>
        <time>2023-10-05T10:27:24Z</time>
      </trkpt>
      <trkpt lat="48.69983" lon="7.16597">
        <ele>368.3</ele>
        <time>2023-10-05T10:27:30Z</time>
      </trkpt>
      <trkpt lat="48.70002" lon="7.16586">
        <ele>367.1</ele>
        <time>2023-10-05T10:27:36Z</time>
      </trkpt>
      <trkpt lat="48.70008" lon="7.16585">
        <ele>366.9</ele>
        <time>2023-10-05T10:27:39Z</time>
      </trkpt>
      <trkpt lat="48.70016" lon="7.1659">
        <ele>366.8</ele>
        <time>2023-10-05T10:27:44Z</time>
      </trkpt>
      <trkpt lat="48.70035" lon="7.16581">
        <ele>365.7</ele>
        <time>2023-10-05T10:27:51Z</time>
      </trkpt>
      <trkpt lat="48.70052" lon="7.16569">
        <ele>365.3</ele>
        <time>2023-10-05T10:27:59Z</time>
      </trkpt>
      <trkpt lat="48.70062" lon="7.16543">
        <ele>364.4</ele>
        <time>2023-10-05T10:28:07Z</time>
      </trkpt>
      <trkpt lat="48.70073" lon="7.1652">
        <ele>363.8</ele>
        <time>2023-10-05T10:28:14Z</time>
      </trkpt>
      <trkpt lat="48.70085" lon="7.16495">
        <ele>363</ele>
        <time>2023-10-05T10:28:20Z</time>
      </trkpt>
      <trkpt lat="48.70094" lon="7.16469">
        <ele>362.3</ele>
        <time>2023-10-05T10:28:26Z</time>
      </trkpt>
      <trkpt lat="48.70105" lon="7.16442">
        <ele>361.6</ele>
        <time>2023-10-05T10:28:33Z</time>
      </trkpt>
      <trkpt lat="48.70113" lon="7.16417">
        <ele>360.9</ele>
        <time>2023-10-05T10:28:39Z</time>
      </trkpt>
      <trkpt lat="48.7012" lon="7.16397">
        <ele>360.5</ele>
        <time>2023-10-05T10:28:44Z</time>
      </trkpt>
      <trkpt lat="48.70138" lon="7.16411">
        <ele>361.1</ele>
        <time>2023-10-05T10:28:50Z</time>
      </trkpt>
      <trkpt lat="48.70153" lon="7.1643">
        <ele>361.5</ele>
        <time>2023-10-05T10:28:55Z</time>
      </trkpt>
      <trkpt lat="48.70168" lon="7.16449">
        <ele>361.3</ele>
        <time>2023-10-05T10:29:00Z</time>
      </trkpt>
      <trkpt lat="48.70182" lon="7.16468">
        <ele>360.9</ele>
        <time>2023-10-05T10:29:05Z</time>
      </trkpt>
      <trkpt lat="48.702" lon="7.16485">
        <ele>361</ele>
        <time>2023-10-05T10:29:11Z</time>
      </trkpt>
      <trkpt lat="48.70216" lon="7.16505">
        <ele>360.3</ele>
        <time>2023-10-05T10:29:17Z</time>
      </trkpt>
      <trkpt lat="48.70231" lon="7.16522">
        <ele>359.8</ele>
        <time>2023-10-05T10:29:22Z</time>
      </trkpt>
      <trkpt lat="48.70245" lon="7.16541">
        <ele>359.6</ele>
        <time>2023-10-05T10:29:27Z</time>
      </trkpt>
      <trkpt lat="48.7026" lon="7.16562">
        <ele>359.9</ele>
        <time>2023-10-05T10:29:33Z</time>
      </trkpt>
      <trkpt lat="48.70273" lon="7.16585">
        <ele>360.1</ele>
        <time>2023-10-05T10:29:39Z</time>
      </trkpt>
      <trkpt lat="48.70285" lon="7.16606">
        <ele>359.2</ele>
        <time>2023-10-05T10:29:45Z</time>
      </trkpt>
      <trkpt lat="48.70298" lon="7.16629">
        <ele>358.5</ele>
        <time>2023-10-05T10:29:51Z</time>
      </trkpt>
      <trkpt lat="48.70312" lon="7.16654">
        <ele>358.9</ele>
        <time>2023-10-05T10:29:57Z</time>
      </trkpt>
      <trkpt lat="48.70324" lon="7.16676">
        <ele>358.9</ele>
        <time>2023-10-05T10:30:03Z</time>
      </trkpt>
      <trkpt lat="48.70335" lon="7.16698">
        <ele>358.3</ele>
        <time>2023-10-05T10:30:09Z</time>
      </trkpt>
      <trkpt lat="48.7034" lon="7.16725">
        <ele>358.3</ele>
        <time>2023-10-05T10:30:15Z</time>
      </trkpt>
      <trkpt lat="48.7034" lon="7.16753">
        <ele>358</ele>
        <time>2023-10-05T10:30:22Z</time>
      </trkpt>
      <trkpt lat="48.70348" lon="7.16778">
        <ele>357.4</ele>
        <time>2023-10-05T10:30:29Z</time>
      </trkpt>
      <trkpt lat="48.70367" lon="7.16791">
        <ele>356.8</ele>
        <time>2023-10-05T10:30:36Z</time>
      </trkpt>
      <trkpt lat="48.70382" lon="7.16807">
        <ele>355.6</ele>
        <time>2023-10-05T10:30:43Z</time>
      </trkpt>
      <trkpt lat="48.70397" lon="7.16827">
        <ele>354.1</ele>
        <time>2023-10-05T10:30:49Z</time>
      </trkpt>
      <trkpt lat="48.70414" lon="7.16835">
        <ele>353.7</ele>
        <time>2023-10-05T10:30:55Z</time>
      </trkpt>
      <trkpt lat="48.70429" lon="7.16813">
        <ele>353.7</ele>
        <time>2023-10-05T10:31:03Z</time>
      </trkpt>
      <trkpt lat="48.70443" lon="7.16793">
        <ele>353.9</ele>
        <time>2023-10-05T10:31:10Z</time>
      </trkpt>
      <trkpt lat="48.70458" lon="7.16773">
        <ele>354.4</ele>
        <time>2023-10-05T10:31:17Z</time>
      </trkpt>
      <trkpt lat="48.70471" lon="7.16753">
        <ele>355</ele>
        <time>2023-10-05T10:31:24Z</time>
      </trkpt>
      <trkpt lat="48.70483" lon="7.1673">
        <ele>355.7</ele>
        <time>2023-10-05T10:31:31Z</time>
      </trkpt>
      <trkpt lat="48.70496" lon="7.16707">
        <ele>356.2</ele>
        <time>2023-10-05T10:31:38Z</time>
      </trkpt>
      <trkpt lat="48.70508" lon="7.16683">
        <ele>356.5</ele>
        <time>2023-10-05T10:31:45Z</time>
      </trkpt>
      <trkpt lat="48.70521" lon="7.16661">
        <ele>356.6</ele>
        <time>2023-10-05T10:31:52Z</time>
      </trkpt>
      <trkpt lat="48.70537" lon="7.16639">
        <ele>356</ele>
        <time>2023-10-05T10:31:59Z</time>
      </trkpt>
      <trkpt lat="48.70551" lon="7.16616">
        <ele>355.5</ele>
        <time>2023-10-05T10:32:06Z</time>
      </trkpt>
      <trkpt lat="48.70566" lon="7.16594">
        <ele>354.7</ele>
        <time>2023-10-05T10:32:13Z</time>
      </trkpt>
      <trkpt lat="48.70578" lon="7.16573">
        <ele>353.9</ele>
        <time>2023-10-05T10:32:19Z</time>
      </trkpt>
      <trkpt lat="48.7059" lon="7.16551">
        <ele>353.1</ele>
        <time>2023-10-05T10:32:25Z</time>
      </trkpt>
      <trkpt lat="48.70603" lon="7.1653">
        <ele>352.2</ele>
        <time>2023-10-05T10:32:31Z</time>
      </trkpt>
      <trkpt lat="48.70616" lon="7.16508">
        <ele>351.4</ele>
        <time>2023-10-05T10:32:37Z</time>
      </trkpt>
      <trkpt lat="48.7063" lon="7.16485">
        <ele>350.2</ele>
        <time>2023-10-05T10:32:43Z</time>
      </trkpt>
      <trkpt lat="48.70643" lon="7.16461">
        <ele>349.3</ele>
        <time>2023-10-05T10:32:49Z</time>
      </trkpt>
      <trkpt lat="48.70656" lon="7.16437">
        <ele>348.4</ele>
        <time>2023-10-05T10:32:55Z</time>
      </trkpt>
      <trkpt lat="48.70666" lon="7.16428">
        <ele>347.9</ele>
        <time>2023-10-05T10:32:59Z</time>
      </trkpt>
      <trkpt lat="48.70683" lon="7.1644">
        <ele>348.3</ele>
        <time>2023-10-05T10:33:05Z</time>
      </trkpt>
      <trkpt lat="48.70697" lon="7.16457">
        <ele>348.3</ele>
        <time>2023-10-05T10:33:11Z</time>
      </trkpt>
      <trkpt lat="48.70712" lon="7.16474">
        <ele>348</ele>
        <time>2023-10-05T10:33:17Z</time>
      </trkpt>
      <trkpt lat="48.70727" lon="7.16492">
        <ele>347.7</ele>
        <time>2023-10-05T10:33:23Z</time>
      </trkpt>
      <trkpt lat="48.70743" lon="7.16509">
        <ele>347.3</ele>
        <time>2023-10-05T10:33:29Z</time>
      </trkpt>
      <trkpt lat="48.7076" lon="7.16523">
        <ele>346.9</ele>
        <time>2023-10-05T10:33:35Z</time>
      </trkpt>
      <trkpt lat="48.70777" lon="7.16539">
        <ele>346.6</ele>
        <time>2023-10-05T10:33:41Z</time>
      </trkpt>
      <trkpt lat="48.70794" lon="7.16553">
        <ele>346.2</ele>
        <time>2023-10-05T10:33:47Z</time>
      </trkpt>
      <trkpt lat="48.70811" lon="7.16565">
        <ele>346</ele>
        <time>2023-10-05T10:33:53Z</time>
      </trkpt>
      <trkpt lat="48.70827" lon="7.16578">
        <ele>345.8</ele>
        <time>2023-10-05T10:33:59Z</time>
      </trkpt>
      <trkpt lat="48.70846" lon="7.16592">
        <ele>345.7</ele>
        <time>2023-10-05T10:34:05Z</time>
      </trkpt>
      <trkpt lat="48.70861" lon="7.16611">
        <ele>345.5</ele>
        <time>2023-10-05T10:34:11Z</time>
      </trkpt>
      <trkpt lat="48.70875" lon="7.16632">
        <ele>345.4</ele>
        <time>2023-10-05T10:34:17Z</time>
      </trkpt>
      <trkpt lat="48.70889" lon="7.16651">
        <ele>345.4</ele>
        <time>2023-10-05T10:34:23Z</time>
      </trkpt>
      <trkpt lat="48.70904" lon="7.1667">
        <ele>345.3</ele>
        <time>2023-10-05T10:34:29Z</time>
      </trkpt>
      <trkpt lat="48.7092" lon="7.16692">
        <ele>345.3</ele>
        <time>2023-10-05T10:34:35Z</time>
      </trkpt>
      <trkpt lat="48.70935" lon="7.16711">
        <ele>345.2</ele>
        <time>2023-10-05T10:34:41Z</time>
      </trkpt>
      <trkpt lat="48.7095" lon="7.16729">
        <ele>345.3</ele>
        <time>2023-10-05T10:34:47Z</time>
      </trkpt>
      <trkpt lat="48.7096" lon="7.16756">
        <ele>345.6</ele>
        <time>2023-10-05T10:34:53Z</time>
      </trkpt>
      <trkpt lat="48.70965" lon="7.16788">
        <ele>345.9</ele>
        <time>2023-10-05T10:34:59Z</time>
      </trkpt>
      <trkpt lat="48.70966" lon="7.16816">
        <ele>346.2</ele>
        <time>2023-10-05T10:35:04Z</time>
      </trkpt>
      <trkpt lat="48.7097" lon="7.16846">
        <ele>346.7</ele>
        <time>2023-10-05T10:35:10Z</time>
      </trkpt>
      <trkpt lat="48.70982" lon="7.16868">
        <ele>347.2</ele>
        <time>2023-10-05T10:35:15Z</time>
      </trkpt>
      <trkpt lat="48.70992" lon="7.16891">
        <ele>347.5</ele>
        <time>2023-10-05T10:35:20Z</time>
      </trkpt>
      <trkpt lat="48.70997" lon="7.16921">
        <ele>348.1</ele>
        <time>2023-10-05T10:35:26Z</time>
      </trkpt>
      <trkpt lat="48.70998" lon="7.16953">
        <ele>348.7</ele>
        <time>2023-10-05T10:35:32Z</time>
      </trkpt>
      <trkpt lat="48.71" lon="7.16981">
        <ele>349.2</ele>
        <time>2023-10-05T10:35:37Z</time>
      </trkpt>
      <trkpt lat="48.71005" lon="7.1701">
        <ele>349.4</ele>
        <time>2023-10-05T10:35:43Z</time>
      </trkpt>
      <trkpt lat="48.71009" lon="7.17031">
        <ele>349.6</ele>
        <time>2023-10-05T10:35:50Z</time>
      </trkpt>
      <trkpt lat="48.71018" lon="7.17005">
        <ele>349.4</ele>
        <time>2023-10-05T10:35:57Z</time>
      </trkpt>
      <trkpt lat="48.71019" lon="7.16974">
        <ele>349.1</ele>
        <time>2023-10-05T10:36:03Z</time>
      </trkpt>
      <trkpt lat="48.71023" lon="7.16944">
        <ele>348.6</ele>
        <time>2023-10-05T10:36:09Z</time>
      </trkpt>
      <trkpt lat="48.71027" lon="7.16916">
        <ele>348</ele>
        <time>2023-10-05T10:36:15Z</time>
      </trkpt>
      <trkpt lat="48.7103" lon="7.16884">
        <ele>347.3</ele>
        <time>2023-10-05T10:36:22Z</time>
      </trkpt>
      <trkpt lat="48.71034" lon="7.16856">
        <ele>346.6</ele>
        <time>2023-10-05T10:36:28Z</time>
      </trkpt>
      <trkpt lat="48.71039" lon="7.16828">
        <ele>346</ele>
        <time>2023-10-05T10:36:34Z</time>
      </trkpt>
      <trkpt lat="48.71045" lon="7.16801">
        <ele>345.1</ele>
        <time>2023-10-05T10:36:40Z</time>
      </trkpt>
      <trkpt lat="48.71053" lon="7.16772">
        <ele>344.3</ele>
        <time>2023-10-05T10:36:47Z</time>
      </trkpt>
      <trkpt lat="48.71061" lon="7.16743">
        <ele>343.1</ele>
        <time>2023-10-05T10:36:54Z</time>
      </trkpt>
      <trkpt lat="48.71069" lon="7.16716">
        <ele>341.9</ele>
        <time>2023-10-05T10:37:00Z</time>
      </trkpt>
      <trkpt lat="48.71078" lon="7.16689">
        <ele>340.7</ele>
        <time>2023-10-05T10:37:06Z</time>
      </trkpt>
      <trkpt lat="48.71084" lon="7.1666">
        <ele>340</ele>
        <time>2023-10-05T10:37:12Z</time>
      </trkpt>
      <trkpt lat="48.71086" lon="7.16629">
        <ele>339</ele>
        <time>2023-10-05T10:37:18Z</time>
      </trkpt>
      <trkpt lat="48.71088" lon="7.166">
        <ele>337.7</ele>
        <time>2023-10-05T10:37:24Z</time>
      </trkpt>
      <trkpt lat="48.71092" lon="7.1657">
        <ele>336.3</ele>
        <time>2023-10-05T10:37:30Z</time>
      </trkpt>
      <trkpt lat="48.71098" lon="7.16542">
        <ele>335.1</ele>
        <time>2023-10-05T10:37:36Z</time>
      </trkpt>
      <trkpt lat="48.71103" lon="7.16513">
        <ele>333.7</ele>
        <time>2023-10-05T10:37:42Z</time>
      </trkpt>
      <trkpt lat="48.71105" lon="7.16485">
        <ele>332.4</ele>
        <time>2023-10-05T10:37:48Z</time>
      </trkpt>
      <trkpt lat="48.7111" lon="7.16458">
        <ele>330.9</ele>
        <time>2023-10-05T10:37:54Z</time>
      </trkpt>
      <trkpt lat="48.71116" lon="7.16432">
        <ele>329.1</ele>
        <time>2023-10-05T10:38:00Z</time>
      </trkpt>
      <trkpt lat="48.71123" lon="7.16403">
        <ele>327.2</ele>
        <time>2023-10-05T10:38:07Z</time>
      </trkpt>
      <trkpt lat="48.71136" lon="7.16381">
        <ele>324.8</ele>
        <time>2023-10-05T10:38:13Z</time>
      </trkpt>
      <trkpt lat="48.71144" lon="7.16352">
        <ele>322.8</ele>
        <time>2023-10-05T10:38:19Z</time>
      </trkpt>
      <trkpt lat="48.7115" lon="7.16325">
        <ele>321.2</ele>
        <time>2023-10-05T10:38:25Z</time>
      </trkpt>
    </trkseg>
  </trk>
</gpx>